Etusivu
METAR-TAF:

METAR-TAF

Lentoasemat :

Beauvechain, Belgia

Leveyspiiri: 50-45N, Pituuspiiri: 004-46E, korkeus merenpinnasta: 105 m

Tämänhetkinen sää

Tämä raportti tehtiin 36 minuuttia sitten, kello 05.25 UTC
Tuuli 6 kn lounaasta
Lämpötila 17°C
Kosteus 68%
Ilmanpaine 1015 hPa
Näkyvyys 10 km tai enemmän
Muutamia pilviä 12000 ft:n korkeudessa
Hajanaisia pilviä 24000 ft:n korkeudessa

METAR: EBBE 170525Z 23006KT 9999 FEW120 SCT240 17/11 Q1015 BLU BLU

Aika: 08:01 (06:01 UTC)

Sääennuste

Tämä raportti tehtiin 14 tuntia ja 20 minuuttia sitten, kello 15.41 UTC
Ennuste voimassa 16. päivästä klo 19 UTC - 17. päivään klo 07 UTC
Tuuli 5 kn idästä
Näkyvyys 10 km tai enemmän
Muutamia pilviä 6500 ft:n korkeudessa
Hajonneita pilviä 22000 ft:n korkeudessa

TAF: EBBE 161541Z 1619/1707 08005KT 9999 FEW065 BKN220

Säähavainnot ja -ennusteet yli 4000 lentoasemalta (METAR- ja TAF-raportit).

Käytössä olevat sääasemat on merkitty karttaan keltaisilla ja punaisilla pisteillä.

Aseta hiiri pisteen päälle nähdäksesi sääaseman nimen.

Klikkaa sitten nähdäksesi säähavainnot ja -ennusteet.

Kartan vaihtaminen: klikkaa mustalla rastilla varustettuja vihreitä pisteitä, niin voit zoomata sisään; viivalla varustettua vihreää pistettä, niin voit zoomata ulos tai vihreitä nuolia, niin pääset viereisille kartoille.


METAR-TAF: